createdAt,value
2023-01-21T00:01:59.836Z,11.32
2023-01-21T00:04:34.854Z,11.32
2023-01-21T00:07:08.094Z,13.95
2023-01-21T00:09:40.995Z,12.35
2023-01-21T00:12:15.017Z,15.15
2023-01-21T00:14:47.474Z,10.95
2023-01-21T00:17:20.917Z,13.70
2023-01-21T00:19:53.685Z,13.43
2023-01-21T00:22:26.605Z,12.27
2023-01-21T00:24:59.658Z,12.60
2023-01-21T00:27:32.853Z,11.88
2023-01-21T00:30:05.804Z,11.85
2023-01-21T00:32:38.686Z,13.00
2023-01-21T00:35:11.180Z,11.98
2023-01-21T00:37:44.154Z,11.95
2023-01-21T00:40:17.136Z,12.73
2023-01-21T00:42:50.196Z,11.38
2023-01-21T00:45:22.756Z,12.00
2023-01-21T00:47:55.763Z,12.80
2023-01-21T00:50:29.429Z,11.40
2023-01-21T00:53:02.271Z,10.13
2023-01-21T00:55:34.856Z,9.60
2023-01-21T00:58:07.937Z,10.63
2023-01-21T01:00:40.922Z,11.05
2023-01-21T01:03:13.897Z,10.02
2023-01-21T01:05:46.385Z,10.18
2023-01-21T01:08:19.330Z,9.38
2023-01-21T01:10:54.991Z,10.00
2023-01-21T01:13:32.547Z,11.77
2023-01-21T01:16:07.398Z,8.60
2023-01-21T01:18:40.794Z,8.45
2023-01-21T01:21:15.828Z,11.23
2023-01-21T01:23:49.342Z,9.07
2023-01-21T01:26:22.642Z,8.15
2023-01-21T01:28:55.644Z,9.13
2023-01-21T01:31:28.205Z,10.18
2023-01-21T01:34:01.156Z,8.65
2023-01-21T01:36:33.764Z,9.77
2023-01-21T01:39:06.781Z,9.63
2023-01-21T01:41:39.306Z,9.57
2023-01-21T01:44:30.625Z,8.98
2023-01-21T01:47:03.761Z,8.33
2023-01-21T01:49:37.091Z,8.23
2023-01-21T01:52:11.538Z,7.93
2023-01-21T01:54:49.068Z,7.88
2023-01-21T01:57:22.515Z,6.15
2023-01-21T01:59:55.551Z,9.35
2023-01-21T02:02:28.167Z,8.52
2023-01-21T02:05:03.386Z,8.48
2023-01-21T02:07:40.548Z,7.63
2023-01-21T02:10:14.789Z,9.00
2023-01-21T02:12:47.993Z,7.25
2023-01-21T02:15:21.361Z,6.70
2023-01-21T02:18:17.858Z,7.82
2023-01-21T02:21:08.119Z,7.80
2023-01-21T02:23:49.788Z,9.73
2023-01-21T02:26:41.605Z,9.25
2023-01-21T02:29:40.606Z,7.75
2023-01-21T02:32:31.901Z,6.72
2023-01-21T02:35:16.877Z,7.90
2023-01-21T02:37:59.762Z,6.90
2023-01-21T02:41:04.595Z,6.95
2023-01-21T02:43:55.938Z,7.82
2023-01-21T02:46:35.299Z,7.07
2023-01-21T02:49:12.385Z,9.05
2023-01-21T02:51:58.066Z,7.65
2023-01-21T02:54:39.991Z,6.93
2023-01-21T02:57:14.082Z,7.70
2023-01-21T02:59:49.532Z,7.40
2023-01-21T03:02:38.433Z,8.55
2023-01-21T03:05:20.987Z,7.15
2023-01-21T03:07:53.582Z,8.55
2023-01-21T03:10:33.252Z,6.80
2023-01-21T03:13:47.220Z,6.15
2023-01-21T03:16:40.758Z,6.72
2023-01-21T03:19:14.184Z,10.85
2023-01-21T03:21:47.625Z,8.57
2023-01-21T03:24:21.059Z,8.10
2023-01-21T03:26:55.819Z,7.95
2023-01-21T03:29:30.073Z,8.38
2023-01-21T03:32:06.774Z,8.73
2023-01-21T03:34:42.382Z,8.05
2023-01-21T03:37:18.348Z,7.45
2023-01-21T03:39:53.934Z,8.07
2023-01-21T03:42:27.291Z,7.85
2023-01-21T03:45:00.698Z,8.23
2023-01-21T03:47:35.354Z,8.32
2023-01-21T03:50:26.378Z,8.55
2023-01-21T03:52:59.288Z,7.55
2023-01-21T03:55:31.882Z,8.48
2023-01-21T03:58:04.795Z,7.45
2023-01-21T04:00:37.602Z,7.25
2023-01-21T04:03:10.686Z,6.32
2023-01-21T04:05:43.394Z,7.72
2023-01-21T04:08:16.425Z,6.88
2023-01-21T04:10:49.119Z,9.27
2023-01-21T04:13:22.075Z,5.85
2023-01-21T04:15:54.585Z,7.13
2023-01-21T04:18:27.613Z,6.97
2023-01-21T04:21:00.352Z,6.57
2023-01-21T04:23:33.458Z,6.80
2023-01-21T04:26:06.073Z,7.25
2023-01-21T04:28:38.977Z,8.13
2023-01-21T04:31:11.519Z,7.75
2023-01-21T04:33:45.432Z,9.40
2023-01-21T04:36:18.006Z,6.10
2023-01-21T04:38:50.893Z,6.55
2023-01-21T04:41:25.476Z,7.32
2023-01-21T04:43:58.628Z,6.60
2023-01-21T04:46:31.768Z,6.65
2023-01-21T04:49:04.802Z,8.02
2023-01-21T04:51:38.222Z,6.57
2023-01-21T04:54:11.895Z,6.28
2023-01-21T04:56:44.427Z,8.45
2023-01-21T04:59:17.363Z,7.47
2023-01-21T05:01:50.322Z,6.80
2023-01-21T05:04:23.284Z,7.22
2023-01-21T05:06:56.482Z,6.20
2023-01-21T05:09:29.776Z,6.20
2023-01-21T05:12:02.415Z,7.30
2023-01-21T05:14:35.586Z,5.82
2023-01-21T05:17:08.289Z,5.10
2023-01-21T05:19:41.254Z,8.18
2023-01-21T05:22:13.856Z,6.78
2023-01-21T05:24:47.099Z,6.20
2023-01-21T05:27:22.034Z,6.28
2023-01-21T05:29:55.030Z,6.25
2023-01-21T05:32:27.625Z,7.13
2023-01-21T05:35:00.516Z,7.47
2023-01-21T05:37:33.034Z,7.55
2023-01-21T05:40:06.950Z,6.90
2023-01-21T05:42:39.479Z,6.30
2023-01-21T05:45:12.310Z,6.95
2023-01-21T05:47:45.392Z,6.50
2023-01-21T05:50:18.781Z,6.63
2023-01-21T05:52:51.410Z,7.25
2023-01-21T05:55:24.259Z,5.93
2023-01-21T05:57:56.840Z,7.60
2023-01-21T06:00:29.854Z,8.77
2023-01-21T06:03:02.653Z,8.82
2023-01-21T06:05:35.614Z,7.57
2023-01-21T06:08:08.688Z,6.60
2023-01-21T06:10:42.405Z,8.05
2023-01-21T06:13:15.741Z,7.57
2023-01-21T06:15:48.653Z,8.80
2023-01-21T06:18:21.139Z,9.65
2023-01-21T06:20:54.448Z,8.60
2023-01-21T06:23:27.198Z,6.18
2023-01-21T06:26:04.000Z,6.88
2023-01-21T06:28:36.697Z,7.28
2023-01-21T06:31:10.204Z,7.53
2023-01-21T06:33:42.710Z,7.20
2023-01-21T06:36:15.644Z,6.22
2023-01-21T06:38:48.182Z,6.82
2023-01-21T06:41:21.090Z,7.82
2023-01-21T06:43:53.586Z,7.40
2023-01-21T06:46:26.578Z,7.28
2023-01-21T06:48:59.165Z,6.68
2023-01-21T06:51:32.138Z,6.47
2023-01-21T06:54:04.802Z,7.00
2023-01-21T06:56:37.949Z,6.15
2023-01-21T06:59:10.466Z,6.47
2023-01-21T07:01:43.390Z,7.15
2023-01-21T07:04:16.701Z,6.40
2023-01-21T07:06:50.164Z,8.13
2023-01-21T07:09:22.762Z,7.57
2023-01-21T07:11:55.952Z,6.30
2023-01-21T07:14:28.481Z,4.63
2023-01-21T07:17:01.587Z,7.35
2023-01-21T07:19:34.646Z,6.80
2023-01-21T07:22:07.784Z,6.85
2023-01-21T07:24:40.545Z,6.05
2023-01-21T07:27:13.572Z,6.75
2023-01-21T07:29:46.109Z,5.35
2023-01-21T07:32:19.288Z,4.60
2023-01-21T07:34:51.842Z,6.05
2023-01-21T07:37:24.804Z,4.38
2023-01-21T07:39:57.432Z,5.70
2023-01-21T07:42:30.327Z,4.43
2023-01-21T07:45:04.234Z,5.47
2023-01-21T07:47:37.219Z,4.72
2023-01-21T07:50:10.155Z,6.68
2023-01-21T07:52:43.654Z,5.60
2023-01-21T07:55:16.648Z,5.22
2023-01-21T07:57:49.881Z,7.63
2023-01-21T08:00:22.673Z,8.45
2023-01-21T08:02:56.513Z,6.72
2023-01-21T08:05:29.100Z,5.18
2023-01-21T08:08:01.974Z,6.60
2023-01-21T08:10:34.625Z,5.95
2023-01-21T08:13:08.233Z,6.03
2023-01-21T08:15:40.944Z,5.80
2023-01-21T08:18:14.021Z,5.05
2023-01-21T08:20:47.015Z,4.80
2023-01-21T08:23:19.884Z,4.50
2023-01-21T08:25:52.581Z,6.75
2023-01-21T08:28:25.625Z,6.70
2023-01-21T08:31:05.481Z,6.65
2023-01-21T08:33:38.551Z,5.15
2023-01-21T08:36:11.064Z,6.90
2023-01-21T08:38:44.626Z,5.43
2023-01-21T08:41:18.099Z,5.93
2023-01-21T08:43:51.211Z,5.25
2023-01-21T08:46:24.030Z,6.80
2023-01-21T08:48:56.926Z,5.90
2023-01-21T08:51:29.406Z,5.18
2023-01-21T08:54:02.400Z,6.18
2023-01-21T08:56:35.628Z,4.72
2023-01-21T08:59:09.021Z,5.15
2023-01-21T09:01:41.528Z,4.57
2023-01-21T09:04:14.456Z,4.47
2023-01-21T09:06:46.985Z,4.40
2023-01-21T09:09:19.915Z,5.90
2023-01-21T09:11:53.036Z,4.38
2023-01-21T09:14:40.248Z,6.40
2023-01-21T09:17:13.068Z,4.10
2023-01-21T09:19:45.808Z,4.25
2023-01-21T09:22:18.675Z,4.82
2023-01-21T09:24:51.280Z,4.75
2023-01-21T09:27:27.585Z,6.40
2023-01-21T09:30:00.158Z,6.28
2023-01-21T09:32:33.642Z,4.47
2023-01-21T09:35:06.338Z,5.57
2023-01-21T09:37:39.643Z,4.85
2023-01-21T09:40:16.590Z,5.63
2023-01-21T09:42:49.563Z,4.60
2023-01-21T09:45:22.392Z,5.68
2023-01-21T09:47:57.042Z,3.53
2023-01-21T09:50:32.335Z,6.10
2023-01-21T09:53:12.790Z,5.05
2023-01-21T09:55:50.064Z,6.55
2023-01-21T09:58:32.473Z,4.53
2023-01-21T10:01:43.325Z,5.47
2023-01-21T10:04:25.521Z,4.28
2023-01-21T10:07:12.066Z,5.00
2023-01-21T10:09:56.290Z,5.55
2023-01-21T10:12:41.530Z,6.25
2023-01-21T10:15:14.647Z,3.60
2023-01-21T10:17:56.947Z,3.20
2023-01-21T10:20:35.725Z,4.68
2023-01-21T10:23:15.151Z,4.78
2023-01-21T10:25:51.308Z,4.82
2023-01-21T10:28:25.596Z,4.20
2023-01-21T10:31:14.319Z,3.60
2023-01-21T10:33:46.981Z,6.05
2023-01-21T10:36:25.734Z,3.97
2023-01-21T10:39:07.250Z,4.03
2023-01-21T10:41:58.984Z,3.45
2023-01-21T10:44:39.464Z,4.15
2023-01-21T10:47:28.102Z,6.07
2023-01-21T10:50:14.198Z,4.30
2023-01-21T10:53:02.555Z,4.53
2023-01-21T10:55:40.928Z,5.00
2023-01-21T10:58:32.171Z,4.65
2023-01-21T11:01:10.224Z,5.05
2023-01-21T11:03:44.804Z,4.32
2023-01-21T11:06:18.054Z,4.25
2023-01-21T11:09:01.256Z,5.18
2023-01-21T11:11:35.767Z,4.70
2023-01-21T11:14:10.308Z,3.45
2023-01-21T11:16:45.629Z,2.58
2023-01-21T11:19:23.193Z,5.10
2023-01-21T11:22:04.613Z,5.07
2023-01-21T11:27:18.966Z,5.72
2023-01-21T11:29:52.033Z,4.15
2023-01-21T11:32:26.131Z,5.50
2023-01-21T11:34:59.014Z,5.90
2023-01-21T11:37:38.702Z,6.05
2023-01-21T11:40:20.717Z,4.72
2023-01-21T11:42:56.823Z,4.53
2023-01-21T11:45:29.917Z,5.10
2023-01-21T11:48:14.179Z,4.35
2023-01-21T11:50:47.686Z,5.00
2023-01-21T11:53:20.326Z,3.90
2023-01-21T11:55:54.725Z,4.28
2023-01-21T11:58:37.141Z,3.88
2023-01-21T12:01:18.972Z,4.30
2023-01-21T12:03:53.568Z,4.78
2023-01-21T12:06:30.929Z,4.57
2023-01-21T12:09:05.156Z,4.75
2023-01-21T12:11:38.190Z,4.70
2023-01-21T12:14:31.282Z,4.78
2023-01-21T12:17:22.840Z,4.13
2023-01-21T12:20:01.958Z,4.65
2023-01-21T12:22:41.014Z,10.55
2023-01-21T12:25:13.507Z,13.18
2023-01-21T12:28:04.720Z,5.05
2023-01-21T12:30:49.526Z,5.18
2023-01-21T12:33:34.958Z,6.93
2023-01-21T12:36:07.553Z,3.83
2023-01-21T12:38:43.345Z,4.93
2023-01-21T12:41:18.874Z,4.43
2023-01-21T12:43:54.810Z,7.25
2023-01-21T12:46:32.940Z,4.28
2023-01-21T12:49:13.093Z,5.13
2023-01-21T12:51:51.661Z,3.42
2023-01-21T12:54:40.347Z,3.83
2023-01-21T12:57:31.510Z,5.90
2023-01-21T13:00:10.596Z,4.32
2023-01-21T13:03:01.945Z,5.70
2023-01-21T13:05:40.891Z,4.82
2023-01-21T13:08:32.025Z,4.90
2023-01-21T13:11:13.767Z,5.70
2023-01-21T13:13:58.452Z,4.78
2023-01-21T13:16:32.506Z,6.22
2023-01-21T13:19:05.124Z,7.10
2023-01-21T13:21:49.922Z,5.32
2023-01-21T13:24:25.491Z,5.05
2023-01-21T13:27:05.968Z,4.70
2023-01-21T13:29:52.985Z,5.75
2023-01-21T13:32:28.603Z,5.28
2023-01-21T13:35:01.174Z,5.10
2023-01-21T13:37:40.657Z,3.97
2023-01-21T13:40:25.715Z,5.80
2023-01-21T13:43:23.180Z,4.85
2023-01-21T13:46:14.589Z,5.65
2023-01-21T13:48:50.366Z,5.25
2023-01-21T13:51:35.994Z,10.98
2023-01-21T13:54:27.498Z,5.60
2023-01-21T13:57:12.173Z,5.03
2023-01-21T13:59:49.191Z,5.03
2023-01-21T14:02:24.079Z,7.18
2023-01-21T14:05:04.102Z,6.53
2023-01-21T14:08:06.275Z,6.82
2023-01-21T14:10:50.293Z,7.43
2023-01-21T14:13:30.835Z,7.50
2023-01-21T14:16:03.833Z,5.50
2023-01-21T14:18:42.541Z,7.68
2023-01-21T14:21:24.641Z,7.00
2023-01-21T14:24:13.621Z,7.70
2023-01-21T14:26:46.491Z,6.72
2023-01-21T14:29:26.357Z,6.57
2023-01-21T14:32:05.774Z,6.82
2023-01-21T14:34:41.044Z,6.97
2023-01-21T14:37:37.104Z,5.68
2023-01-21T14:40:20.453Z,6.18
2023-01-21T14:42:55.010Z,7.10
2023-01-21T14:45:53.757Z,6.88
2023-01-21T14:48:39.611Z,8.05
2023-01-21T14:51:13.505Z,12.20
2023-01-21T14:53:46.606Z,18.50
2023-01-21T14:56:28.168Z,6.95
2023-01-21T14:59:19.873Z,8.43
2023-01-21T15:02:18.276Z,7.15
2023-01-21T15:05:02.215Z,9.52
2023-01-21T15:07:37.052Z,6.80
2023-01-21T15:10:14.905Z,8.57
2023-01-21T15:12:59.003Z,8.88
2023-01-21T15:15:35.234Z,8.68
2023-01-21T15:18:10.797Z,7.15
2023-01-21T15:20:58.252Z,8.88
2023-01-21T15:23:30.812Z,9.70
2023-01-21T15:26:11.411Z,10.00
2023-01-21T15:28:48.348Z,7.43
2023-01-21T15:31:21.313Z,8.93
2023-01-21T15:34:02.069Z,10.82
2023-01-21T15:36:42.810Z,9.67
2023-01-21T15:39:17.238Z,10.88
2023-01-21T15:42:00.297Z,7.28
2023-01-21T15:44:44.627Z,10.60
2023-01-21T15:47:36.380Z,6.15
2023-01-21T15:50:16.628Z,7.32
2023-01-21T15:53:04.274Z,14.32
2023-01-21T15:55:36.804Z,8.13
2023-01-21T15:58:15.665Z,7.10
2023-01-21T16:00:48.357Z,7.00
2023-01-21T16:03:24.997Z,8.40
2023-01-21T16:06:07.554Z,8.43
2023-01-21T16:08:40.488Z,9.00
2023-01-21T16:11:31.832Z,8.32
2023-01-21T16:14:13.875Z,7.72
2023-01-21T16:16:49.573Z,8.25
2023-01-21T16:19:27.888Z,8.05
2023-01-21T16:22:02.225Z,9.40
2023-01-21T16:24:38.730Z,7.05
2023-01-21T16:27:22.867Z,7.03
2023-01-21T16:29:57.083Z,9.30
2023-01-21T16:32:32.691Z,8.52
2023-01-21T16:35:06.063Z,12.63
2023-01-21T16:37:38.790Z,10.82
2023-01-21T16:40:24.150Z,8.93
2023-01-21T16:43:07.756Z,12.68
2023-01-21T16:45:41.246Z,11.25
2023-01-21T16:48:19.737Z,10.73
2023-01-21T16:50:53.400Z,10.90
2023-01-21T16:53:26.013Z,12.75
2023-01-21T16:55:59.533Z,11.68
2023-01-21T16:58:33.226Z,10.30
2023-01-21T17:01:16.415Z,11.90
2023-01-21T17:03:49.021Z,11.30
2023-01-21T17:06:28.199Z,11.40
2023-01-21T17:09:05.576Z,13.10
2023-01-21T17:11:45.282Z,12.80
2023-01-21T17:14:21.602Z,16.00
2023-01-21T17:16:56.365Z,12.88
2023-01-21T17:19:40.090Z,17.40
2023-01-21T17:22:18.650Z,14.25
2023-01-21T17:24:59.156Z,14.57
2023-01-21T17:27:32.728Z,13.07
2023-01-21T17:30:38.080Z,11.75
2023-01-21T17:33:26.648Z,13.32
2023-01-21T17:36:13.516Z,13.52
2023-01-21T17:38:46.918Z,30.90
2023-01-21T17:41:24.753Z,15.20
2023-01-21T17:43:58.540Z,20.27
2023-01-21T17:46:31.432Z,18.88
2023-01-21T17:49:09.229Z,14.55
2023-01-21T17:51:42.781Z,17.90
2023-01-21T17:54:20.741Z,14.05
2023-01-21T17:57:00.697Z,13.30
2023-01-21T17:59:37.974Z,10.30
2023-01-21T18:02:14.724Z,13.63
2023-01-21T18:04:47.768Z,15.52
2023-01-21T18:07:25.114Z,15.63
2023-01-21T18:10:00.286Z,14.70
2023-01-21T18:12:35.536Z,10.85
2023-01-21T18:15:14.690Z,12.10
2023-01-21T18:17:49.104Z,10.77
2023-01-21T18:20:24.876Z,11.95
2023-01-21T18:22:58.429Z,11.07
2023-01-21T18:25:32.636Z,12.82
2023-01-21T18:28:13.407Z,13.73
2023-01-21T18:30:46.676Z,12.68
2023-01-21T18:33:19.205Z,13.88
2023-01-21T18:35:52.957Z,13.90
2023-01-21T18:38:31.190Z,15.27
2023-01-21T18:41:06.463Z,13.25
2023-01-21T18:43:38.988Z,13.38
2023-01-21T18:46:12.808Z,17.17
2023-01-21T18:48:45.625Z,19.83
2023-01-21T18:51:18.613Z,23.65
2023-01-21T18:53:51.342Z,20.63
2023-01-21T18:56:24.379Z,29.83
2023-01-21T18:58:57.444Z,25.30
2023-01-21T19:01:30.568Z,32.35
2023-01-21T19:04:04.495Z,29.08
2023-01-21T19:06:37.441Z,23.30
2023-01-21T19:09:36.082Z,20.40
2023-01-21T19:12:09.878Z,19.63
2023-01-21T19:14:42.472Z,20.25
2023-01-21T19:17:19.614Z,17.60
2023-01-21T19:19:52.693Z,18.50
2023-01-21T19:22:25.716Z,22.92
2023-01-21T19:24:58.331Z,24.23
2023-01-21T19:27:34.343Z,30.40
2023-01-21T19:30:20.530Z,24.48
2023-01-21T19:32:54.363Z,24.30
2023-01-21T19:35:35.127Z,21.90
2023-01-21T19:38:16.524Z,22.17
2023-01-21T19:40:49.228Z,21.42
2023-01-21T19:43:22.536Z,21.15
2023-01-21T19:45:56.383Z,20.77
2023-01-21T19:48:29.635Z,25.77
2023-01-21T19:51:02.392Z,25.40
2023-01-21T19:53:35.400Z,29.92
2023-01-21T19:56:08.208Z,34.55
2023-01-21T19:58:42.460Z,36.53
2023-01-21T20:01:15.111Z,76.22
2023-01-21T20:03:59.284Z,56.08
2023-01-21T20:06:35.163Z,52.70
2023-01-21T20:09:11.361Z,54.13
2023-01-21T20:11:44.346Z,41.63
2023-01-21T20:14:17.230Z,19.42
2023-01-21T20:16:51.832Z,22.90
2023-01-21T20:19:24.998Z,17.65
2023-01-21T20:22:02.857Z,18.17
2023-01-21T20:24:36.084Z,17.80
2023-01-21T20:27:11.187Z,17.52
2023-01-21T20:29:55.563Z,15.25
2023-01-21T20:32:28.484Z,16.70
2023-01-21T20:35:03.802Z,16.63
2023-01-21T20:37:36.438Z,15.38
2023-01-21T20:40:15.420Z,18.83
2023-01-21T20:42:48.478Z,15.02
2023-01-21T20:45:23.519Z,17.17
2023-01-21T20:47:58.066Z,19.88
2023-01-21T20:50:33.900Z,18.58
2023-01-21T20:53:06.447Z,18.58
2023-01-21T20:55:40.300Z,20.23
2023-01-21T20:58:14.215Z,20.85
2023-01-21T21:00:47.298Z,21.67
2023-01-21T21:03:19.911Z,21.92
2023-01-21T21:05:52.770Z,21.20
2023-01-21T21:08:25.331Z,23.95
2023-01-21T21:10:58.304Z,19.70
2023-01-21T21:13:30.847Z,23.75
2023-01-21T21:16:08.988Z,24.88
2023-01-21T21:18:41.560Z,21.98
2023-01-21T21:21:15.254Z,21.67
2023-01-21T21:23:47.833Z,23.98
2023-01-21T21:26:22.456Z,22.70
2023-01-21T21:28:55.655Z,19.13
2023-01-21T21:31:32.983Z,18.90
2023-01-21T21:34:05.652Z,18.55
2023-01-21T21:36:41.209Z,18.73
2023-01-21T21:39:19.464Z,21.08
2023-01-21T21:42:10.674Z,18.10
2023-01-21T21:44:44.165Z,18.38
2023-01-21T21:47:35.458Z,21.85
2023-01-21T21:50:08.640Z,24.63
2023-01-21T21:52:41.637Z,23.40
2023-01-21T21:55:15.858Z,22.48
2023-01-21T21:57:48.852Z,22.70
2023-01-21T22:00:21.611Z,21.42
2023-01-21T22:02:57.779Z,21.85
2023-01-21T22:05:30.932Z,21.65
2023-01-21T22:08:04.217Z,19.75
2023-01-21T22:10:36.798Z,20.08
2023-01-21T22:13:09.677Z,22.48
2023-01-21T22:15:42.203Z,20.75
2023-01-21T22:18:15.180Z,20.50
2023-01-21T22:20:47.862Z,16.45
2023-01-21T22:23:24.210Z,19.40
2023-01-21T22:25:57.370Z,18.67
2023-01-21T22:28:30.501Z,18.38
2023-01-21T22:31:04.527Z,16.83
2023-01-21T22:33:37.736Z,21.60
2023-01-21T22:36:11.471Z,18.75
2023-01-21T22:38:44.814Z,19.90
2023-01-21T22:41:19.077Z,21.00
2023-01-21T22:43:52.440Z,19.20
2023-01-21T22:46:26.450Z,17.92
2023-01-21T22:48:59.838Z,17.77
2023-01-21T22:51:32.355Z,19.20
2023-01-21T22:54:05.440Z,19.92
2023-01-21T22:56:51.648Z,19.40
2023-01-21T22:59:25.561Z,20.13
2023-01-21T23:01:58.166Z,19.80
2023-01-21T23:04:31.158Z,21.45
2023-01-21T23:07:03.831Z,21.38
2023-01-21T23:09:36.797Z,19.35
2023-01-21T23:12:18.902Z,20.77
2023-01-21T23:14:52.057Z,20.48
2023-01-21T23:17:24.594Z,20.80
2023-01-21T23:19:57.651Z,20.40
2023-01-21T23:22:30.165Z,23.35
2023-01-21T23:25:03.034Z,23.27
2023-01-21T23:27:35.727Z,26.55
2023-01-21T23:30:10.094Z,26.27
2023-01-21T23:32:42.623Z,28.15
2023-01-21T23:35:15.637Z,29.05
2023-01-21T23:37:48.230Z,29.88
2023-01-21T23:40:21.149Z,25.35
2023-01-21T23:42:53.700Z,22.83
2023-01-21T23:45:27.001Z,21.95
2023-01-21T23:47:59.471Z,24.17
2023-01-21T23:50:32.438Z,21.73
2023-01-21T23:53:04.977Z,26.35
2023-01-21T23:55:38.415Z,21.20
2023-01-21T23:58:10.964Z,21.52
